createdAt,value
2019-03-05T00:01:23.953Z,36.50
2019-03-05T00:03:49.894Z,36.50
2019-03-05T00:06:15.861Z,36.50
2019-03-05T00:08:41.937Z,36.60
2019-03-05T00:11:07.897Z,36.60
2019-03-05T00:13:33.834Z,36.70
2019-03-05T00:15:59.784Z,36.60
2019-03-05T00:18:26.293Z,36.70
2019-03-05T00:20:52.254Z,36.60
2019-03-05T00:23:18.288Z,36.70
2019-03-05T00:25:44.280Z,36.70
2019-03-05T00:28:10.348Z,36.70
2019-03-05T00:30:36.287Z,36.80
2019-03-05T00:33:02.277Z,36.80
2019-03-05T00:35:28.336Z,36.80
2019-03-05T00:37:54.373Z,36.90
2019-03-05T00:40:20.356Z,36.80
2019-03-05T00:42:46.874Z,36.80
2019-03-05T00:45:12.829Z,36.80
2019-03-05T00:47:38.777Z,36.90
2019-03-05T00:50:04.715Z,36.90
2019-03-05T00:52:30.680Z,36.90
2019-03-05T00:54:56.625Z,36.90
2019-03-05T00:57:22.599Z,36.90
2019-03-05T00:59:48.543Z,37.00
2019-03-05T01:02:14.495Z,37.00
2019-03-05T01:04:40.444Z,36.90
2019-03-05T01:07:06.485Z,37.00
2019-03-05T01:09:32.451Z,37.00
2019-03-05T01:11:58.618Z,37.00
2019-03-05T01:14:24.840Z,37.00
2019-03-05T01:16:50.814Z,37.00
2019-03-05T01:19:16.770Z,37.00
2019-03-05T01:21:42.710Z,37.00
2019-03-05T01:24:08.677Z,37.00
2019-03-05T01:26:34.620Z,37.00
2019-03-05T01:29:00.615Z,37.00
2019-03-05T01:31:37.575Z,37.00
2019-03-05T01:34:05.441Z,37.00
2019-03-05T01:36:36.318Z,37.00
2019-03-05T01:39:04.162Z,37.00
2019-03-05T01:41:30.425Z,37.00
2019-03-05T01:43:56.392Z,37.00
2019-03-05T01:46:22.432Z,36.90
2019-03-05T01:48:48.374Z,36.90
2019-03-05T01:51:14.327Z,36.90
2019-03-05T01:53:40.295Z,36.90
2019-03-05T01:56:06.278Z,36.90
2019-03-05T01:58:32.317Z,36.90
2019-03-05T02:00:58.403Z,36.90
2019-03-05T02:03:24.346Z,36.90
2019-03-05T02:05:50.296Z,36.90
2019-03-05T02:08:16.372Z,36.90
2019-03-05T02:10:42.363Z,36.90
2019-03-05T02:13:08.377Z,36.90
2019-03-05T02:15:34.327Z,36.90
2019-03-05T02:18:00.310Z,36.90
2019-03-05T02:20:26.250Z,36.80
2019-03-05T02:22:52.231Z,36.80
2019-03-05T02:25:18.278Z,36.80
2019-03-05T02:27:44.279Z,36.80
2019-03-05T02:30:10.218Z,36.80
2019-03-05T02:32:36.960Z,36.80
2019-03-05T02:35:03.038Z,36.80
2019-03-05T02:37:29.070Z,36.80
2019-03-05T02:39:55.076Z,36.80
2019-03-05T02:42:21.666Z,36.80
2019-03-05T02:44:47.636Z,36.80
2019-03-05T02:47:13.587Z,36.80
2019-03-05T02:49:39.631Z,36.80
2019-03-05T02:52:05.577Z,36.80
2019-03-05T02:54:32.169Z,36.90
2019-03-05T02:56:58.096Z,36.80
2019-03-05T02:59:24.026Z,36.80
2019-03-05T03:01:54.792Z,36.80
2019-03-05T03:04:25.750Z,36.90
2019-03-05T03:06:51.723Z,36.80
2019-03-05T03:09:17.845Z,36.80
2019-03-05T03:11:44.115Z,36.80
2019-03-05T03:14:10.270Z,36.80
2019-03-05T03:16:36.219Z,36.70
2019-03-05T03:19:02.276Z,36.70
2019-03-05T03:21:28.298Z,36.70
2019-03-05T03:23:54.316Z,36.90
2019-03-05T03:26:20.275Z,36.80
2019-03-05T03:28:46.216Z,36.90
2019-03-05T03:31:12.170Z,36.70
2019-03-05T03:33:38.124Z,36.80
2019-03-05T03:36:04.186Z,36.90
2019-03-05T03:38:30.152Z,36.90
2019-03-05T03:40:56.106Z,36.90
2019-03-05T03:43:22.156Z,36.80
2019-03-05T03:45:48.095Z,36.80
2019-03-05T03:48:14.058Z,36.80
2019-03-05T03:50:40.104Z,36.90
2019-03-05T03:53:06.057Z,36.90
2019-03-05T03:55:31.993Z,36.90
2019-03-05T03:57:57.948Z,37.00
2019-03-05T04:00:23.994Z,36.90
2019-03-05T04:02:50.037Z,36.90
2019-03-05T04:05:15.999Z,36.90
2019-03-05T04:07:41.970Z,36.80
2019-03-05T04:10:07.909Z,37.00
2019-03-05T04:12:34.081Z,36.90
2019-03-05T04:15:00.364Z,36.90
2019-03-05T04:17:26.504Z,36.90
2019-03-05T04:19:52.545Z,36.90
2019-03-05T04:22:18.485Z,36.90
2019-03-05T04:24:44.461Z,36.90
2019-03-05T04:27:10.461Z,37.00
2019-03-05T04:29:36.530Z,37.10
2019-03-05T04:32:02.584Z,37.00
2019-03-05T04:34:28.540Z,37.10
2019-03-05T04:36:54.483Z,37.00
2019-03-05T04:39:20.607Z,37.70
2019-03-05T04:41:46.568Z,37.00
2019-03-05T04:44:14.441Z,36.90
2019-03-05T04:46:41.377Z,37.10
2019-03-05T04:49:26.508Z,37.20
2019-03-05T04:52:00.567Z,37.10
2019-03-05T04:54:26.618Z,37.10
2019-03-05T04:56:52.684Z,37.00
2019-03-05T04:59:18.739Z,37.00
2019-03-05T05:01:44.677Z,37.00
2019-03-05T05:04:10.648Z,37.60
2019-03-05T05:06:36.704Z,36.80
2019-03-05T05:09:03.363Z,36.90
2019-03-05T05:11:29.440Z,36.80
2019-03-05T05:13:55.441Z,36.70
2019-03-05T05:16:21.405Z,36.80
2019-03-05T05:18:47.360Z,36.70
2019-03-05T05:21:13.325Z,36.70
2019-03-05T05:23:39.247Z,36.70
2019-03-05T05:26:05.201Z,36.70
2019-03-05T05:28:31.182Z,36.60
2019-03-05T05:30:57.225Z,36.70
2019-03-05T05:33:23.175Z,36.60
2019-03-05T05:35:49.116Z,36.60
2019-03-05T05:38:15.126Z,36.70
2019-03-05T05:40:41.151Z,36.70
2019-03-05T05:43:07.103Z,36.70
2019-03-05T05:45:33.063Z,36.70
2019-03-05T05:47:59.106Z,36.70
2019-03-05T05:50:25.042Z,36.60
2019-03-05T05:52:51.006Z,36.60
2019-03-05T05:55:16.950Z,36.60
2019-03-05T05:57:42.919Z,36.70
2019-03-05T06:00:08.963Z,36.60
2019-03-05T06:02:35.289Z,36.70
2019-03-05T06:05:01.313Z,36.60
2019-03-05T06:07:27.251Z,36.70
2019-03-05T06:09:53.219Z,36.70
2019-03-05T06:12:19.153Z,36.70
2019-03-05T06:14:45.120Z,36.70
2019-03-05T06:17:11.050Z,36.80
2019-03-05T06:19:37.019Z,36.70
2019-03-05T06:22:02.964Z,36.70
2019-03-05T06:24:28.902Z,36.70
2019-03-05T06:26:54.855Z,36.70
2019-03-05T06:29:20.790Z,36.70
2019-03-05T06:31:46.757Z,36.70
2019-03-05T06:34:12.725Z,36.70
2019-03-05T06:36:38.691Z,36.70
2019-03-05T06:39:04.626Z,36.70
2019-03-05T06:41:30.580Z,36.80
2019-03-05T06:43:56.519Z,36.70
2019-03-05T06:46:22.488Z,36.70
2019-03-05T06:48:48.435Z,36.80
2019-03-05T06:51:14.395Z,36.80
2019-03-05T06:53:40.341Z,36.70
2019-03-05T06:56:06.307Z,36.70
2019-03-05T06:58:32.241Z,36.80
2019-03-05T07:00:58.238Z,36.80
2019-03-05T07:03:24.189Z,36.70
2019-03-05T07:05:50.144Z,36.70
2019-03-05T07:08:16.109Z,36.70
2019-03-05T07:10:42.055Z,36.80
2019-03-05T07:13:08.144Z,36.80
2019-03-05T07:15:34.085Z,36.70
2019-03-05T07:18:00.037Z,36.70
2019-03-05T07:20:25.985Z,36.70
2019-03-05T07:22:51.951Z,36.70
2019-03-05T07:25:17.886Z,36.80
2019-03-05T07:27:43.862Z,36.80
2019-03-05T07:30:09.917Z,36.80
2019-03-05T07:32:35.943Z,36.70
2019-03-05T07:35:01.914Z,36.70
2019-03-05T07:37:27.877Z,36.80
2019-03-05T07:39:53.825Z,36.80
2019-03-05T07:42:20.133Z,36.90
2019-03-05T07:44:46.084Z,37.60
2019-03-05T07:47:12.024Z,36.90
2019-03-05T07:49:43.718Z,36.90
2019-03-05T07:52:05.844Z,37.10
2019-03-05T07:54:31.795Z,37.10
2019-03-05T07:56:57.748Z,37.00
2019-03-05T07:59:23.732Z,37.00
2019-03-05T08:01:49.791Z,37.10
2019-03-05T08:04:15.760Z,37.10
2019-03-05T08:06:41.695Z,37.10
2019-03-05T08:09:08.240Z,37.10
2019-03-05T08:11:34.194Z,37.10
2019-03-05T08:14:00.238Z,37.10
2019-03-05T08:16:26.602Z,37.20
2019-03-05T08:18:52.532Z,37.10
2019-03-05T08:21:18.494Z,37.10
2019-03-05T08:23:44.430Z,37.10
2019-03-05T08:26:10.406Z,37.10
2019-03-05T08:28:36.337Z,37.10
2019-03-05T08:31:02.614Z,37.10
2019-03-05T08:33:28.710Z,37.10
2019-03-05T08:35:54.661Z,37.10
2019-03-05T08:38:20.632Z,37.20
2019-03-05T08:40:46.602Z,37.10
2019-03-05T08:43:13.897Z,37.10
2019-03-05T08:45:39.886Z,37.30
2019-03-05T08:48:05.932Z,37.10
2019-03-05T08:50:32.000Z,37.30
2019-03-05T08:52:58.029Z,37.20
2019-03-05T08:55:23.996Z,37.30
2019-03-05T08:57:50.056Z,37.20
2019-03-05T09:00:16.153Z,37.10
2019-03-05T09:02:48.657Z,37.20
2019-03-05T09:05:09.937Z,37.20
2019-03-05T09:07:35.906Z,37.30
2019-03-05T09:10:01.889Z,37.30
2019-03-05T09:12:27.926Z,37.30
2019-03-05T09:14:53.891Z,37.30
2019-03-05T09:17:19.936Z,37.30
2019-03-05T09:19:45.913Z,37.20
2019-03-05T09:22:11.856Z,37.10
2019-03-05T09:24:37.820Z,37.10
2019-03-05T09:27:03.752Z,37.30
2019-03-05T09:29:29.715Z,37.10
2019-03-05T09:31:55.638Z,37.20
2019-03-05T09:34:21.626Z,37.20
2019-03-05T09:36:51.206Z,37.10
2019-03-05T09:39:16.468Z,37.20
2019-03-05T09:41:42.428Z,37.10
2019-03-05T09:44:08.367Z,37.10
2019-03-05T09:46:34.321Z,37.10
2019-03-05T09:49:00.289Z,37.10
2019-03-05T09:51:26.264Z,37.10
2019-03-05T09:53:52.217Z,37.20
2019-03-05T09:56:19.298Z,37.00
2019-03-05T09:58:45.330Z,37.10
2019-03-05T10:01:11.307Z,37.20
2019-03-05T10:03:37.342Z,37.00
2019-03-05T10:06:03.313Z,37.10
2019-03-05T10:08:32.814Z,37.10
2019-03-05T10:10:57.163Z,37.10
2019-03-05T10:13:23.105Z,37.00
2019-03-05T10:15:49.033Z,37.10
2019-03-05T10:18:15.001Z,37.00
2019-03-05T10:20:40.974Z,37.00
2019-03-05T10:23:07.094Z,37.60
2019-03-05T10:25:33.061Z,37.00
2019-03-05T10:27:59.004Z,37.00
2019-03-05T10:30:25.442Z,37.00
2019-03-05T10:32:51.534Z,37.00
2019-03-05T10:35:17.504Z,36.90
2019-03-05T10:37:43.603Z,37.00
2019-03-05T10:40:09.563Z,37.00
2019-03-05T10:42:35.494Z,37.00
2019-03-05T10:45:01.427Z,37.00
2019-03-05T10:47:27.494Z,37.00
2019-03-05T10:49:53.539Z,37.00
2019-03-05T10:52:19.775Z,37.40
2019-03-05T10:54:45.826Z,36.90
2019-03-05T10:57:11.781Z,37.00
2019-03-05T10:59:37.771Z,37.00
2019-03-05T11:02:03.979Z,37.00
2019-03-05T11:04:30.124Z,37.00
2019-03-05T11:06:56.089Z,36.90
2019-03-05T11:09:22.134Z,36.90
2019-03-05T11:11:48.115Z,36.80
2019-03-05T11:14:14.221Z,36.90
2019-03-05T11:16:40.262Z,36.90
2019-03-05T11:19:06.205Z,36.90
2019-03-05T11:21:32.160Z,37.00
2019-03-05T11:23:58.124Z,36.80
2019-03-05T11:26:24.066Z,36.90
2019-03-05T11:28:50.029Z,36.90
2019-03-05T11:31:16.093Z,36.90
2019-03-05T11:33:42.055Z,36.80
2019-03-05T11:36:07.999Z,36.90
2019-03-05T11:38:33.951Z,36.80
2019-03-05T11:40:59.927Z,36.90
2019-03-05T11:43:25.890Z,36.90
2019-03-05T11:45:51.862Z,36.80
2019-03-05T11:48:17.792Z,36.90
2019-03-05T11:50:43.739Z,36.90
2019-03-05T11:53:09.689Z,36.80
2019-03-05T11:55:35.655Z,36.90
2019-03-05T11:58:01.615Z,36.80
2019-03-05T12:00:46.391Z,36.90
2019-03-05T12:03:12.342Z,36.80
2019-03-05T12:05:38.316Z,36.70
2019-03-05T12:08:04.373Z,36.80
2019-03-05T12:10:30.307Z,36.80
2019-03-05T12:12:56.313Z,36.90
2019-03-05T12:15:22.269Z,36.90
2019-03-05T12:17:48.235Z,36.90
2019-03-05T12:20:14.293Z,36.90
2019-03-05T12:22:40.347Z,37.10
2019-03-05T12:25:06.305Z,36.90
2019-03-05T12:27:32.258Z,36.90
2019-03-05T12:29:58.223Z,37.00
2019-03-05T12:32:24.375Z,36.80
2019-03-05T12:34:50.339Z,36.90
2019-03-05T12:37:16.297Z,36.90
2019-03-05T12:39:42.270Z,36.90
2019-03-05T12:42:08.226Z,36.90
2019-03-05T12:44:34.264Z,36.80
2019-03-05T12:47:00.280Z,36.90
2019-03-05T12:49:26.241Z,37.50
2019-03-05T12:51:52.278Z,36.90
2019-03-05T12:54:18.233Z,36.90
2019-03-05T12:56:44.200Z,36.90
2019-03-05T12:59:10.406Z,36.90
2019-03-05T13:01:36.353Z,36.90
2019-03-05T13:04:02.281Z,36.90
2019-03-05T13:06:28.245Z,36.90
2019-03-05T13:08:54.216Z,36.90
2019-03-05T13:11:20.211Z,36.90
2019-03-05T13:13:50.860Z,36.90
2019-03-05T13:16:14.153Z,36.90
2019-03-05T13:18:40.110Z,36.90
2019-03-05T13:21:07.773Z,36.90
2019-03-05T13:23:33.964Z,36.90
2019-03-05T13:26:03.174Z,37.00
2019-03-05T13:28:27.799Z,36.90
2019-03-05T13:30:53.742Z,36.90
2019-03-05T13:33:19.750Z,37.00
2019-03-05T13:35:45.860Z,37.00
2019-03-05T13:38:11.834Z,37.10
2019-03-05T13:40:38.743Z,37.10
2019-03-05T13:43:05.754Z,37.10
2019-03-05T13:45:32.052Z,37.10
2019-03-05T13:47:58.019Z,37.10
2019-03-05T13:50:24.344Z,37.20
2019-03-05T13:52:50.555Z,37.20
2019-03-05T13:55:16.494Z,37.20
2019-03-05T13:57:43.666Z,37.20
2019-03-05T14:00:10.343Z,37.20
2019-03-05T14:02:39.334Z,37.30
2019-03-05T14:05:05.279Z,37.40
2019-03-05T14:07:31.226Z,37.30
2019-03-05T14:09:57.203Z,37.30
2019-03-05T14:12:26.273Z,37.30
2019-03-05T14:14:52.449Z,37.20
2019-03-05T14:17:20.418Z,37.20
2019-03-05T14:19:46.443Z,37.30
2019-03-05T14:22:12.438Z,37.30
2019-03-05T14:24:38.510Z,37.40
2019-03-05T14:27:04.590Z,37.40
2019-03-05T14:29:30.553Z,37.30
2019-03-05T14:31:56.643Z,37.30
2019-03-05T14:34:22.718Z,37.30
2019-03-05T14:36:48.842Z,37.40
2019-03-05T14:39:15.352Z,37.40
2019-03-05T14:41:41.401Z,36.80
2019-03-05T14:44:07.460Z,37.40
2019-03-05T14:46:33.496Z,37.40
2019-03-05T14:48:59.485Z,37.50
2019-03-05T14:51:25.517Z,37.50
2019-03-05T14:53:51.520Z,37.50
2019-03-05T14:56:17.552Z,37.60
2019-03-05T14:58:43.679Z,37.60
2019-03-05T15:01:09.721Z,37.60
2019-03-05T15:03:35.682Z,37.60
2019-03-05T15:06:01.745Z,37.60
2019-03-05T15:08:27.819Z,38.20
2019-03-05T15:10:53.882Z,37.60
2019-03-05T15:13:20.417Z,37.60
2019-03-05T15:15:46.597Z,37.60
2019-03-05T15:18:12.565Z,37.60
2019-03-05T15:20:38.662Z,37.60
2019-03-05T15:23:04.736Z,38.20
2019-03-05T15:25:30.781Z,37.60
2019-03-05T15:27:56.851Z,37.60
2019-03-05T15:30:22.911Z,37.60
2019-03-05T15:32:48.944Z,37.60
2019-03-05T15:35:15.040Z,37.60
2019-03-05T15:37:41.082Z,37.60
2019-03-05T15:40:07.136Z,37.50
2019-03-05T15:42:33.619Z,37.50
2019-03-05T15:44:59.668Z,37.50
2019-03-05T15:47:25.762Z,37.50
2019-03-05T15:49:51.994Z,37.50
2019-03-05T15:52:18.038Z,37.50
2019-03-05T15:54:43.993Z,37.50
2019-03-05T15:57:09.932Z,37.50
2019-03-05T15:59:35.924Z,38.10
2019-03-05T16:02:02.162Z,38.00
2019-03-05T16:04:28.142Z,37.40
2019-03-05T16:06:54.074Z,37.80
2019-03-05T16:09:20.039Z,37.40
2019-03-05T16:11:45.973Z,37.60
2019-03-05T16:14:11.925Z,37.60
2019-03-05T16:16:37.880Z,37.60
2019-03-05T16:19:03.962Z,37.60
2019-03-05T16:21:30.019Z,37.60
2019-03-05T16:23:55.968Z,37.50
2019-03-05T16:26:23.664Z,37.40
2019-03-05T16:28:49.765Z,37.40
2019-03-05T16:31:26.942Z,38.00
2019-03-05T16:34:09.490Z,37.40
2019-03-05T16:36:37.754Z,37.40
2019-03-05T16:39:10.423Z,37.40
2019-03-05T16:41:41.549Z,37.30
2019-03-05T16:44:09.408Z,37.20
2019-03-05T16:46:40.075Z,37.10
2019-03-05T16:49:14.242Z,36.90
2019-03-05T16:51:54.749Z,36.90
2019-03-05T16:54:22.711Z,36.90
2019-03-05T16:57:02.728Z,37.00
2019-03-05T16:59:47.711Z,37.00
2019-03-05T17:02:24.836Z,37.00
2019-03-05T17:04:52.817Z,36.90
2019-03-05T17:07:23.806Z,37.00
2019-03-05T17:10:00.739Z,37.00
2019-03-05T17:12:26.784Z,36.90
2019-03-05T17:14:52.767Z,36.90
2019-03-05T17:17:18.870Z,36.40
2019-03-05T17:19:45.270Z,36.90
2019-03-05T17:22:11.338Z,36.90
2019-03-05T17:24:37.403Z,36.90
2019-03-05T17:27:03.340Z,36.90
2019-03-05T17:29:29.301Z,37.50
2019-03-05T17:31:55.376Z,36.80
2019-03-05T17:34:21.754Z,36.90
2019-03-05T17:36:47.700Z,36.80
2019-03-05T17:39:15.697Z,37.40
2019-03-05T17:41:41.667Z,36.80
2019-03-05T17:44:07.666Z,36.80
2019-03-05T17:46:33.637Z,36.80
2019-03-05T17:48:59.824Z,36.70
2019-03-05T17:51:25.895Z,36.70
2019-03-05T17:53:51.970Z,36.70
2019-03-05T17:56:18.044Z,36.60
2019-03-05T17:58:44.020Z,36.70
2019-03-05T18:01:09.966Z,36.60
2019-03-05T18:03:36.318Z,36.60
2019-03-05T18:06:04.002Z,36.80
2019-03-05T18:08:31.939Z,36.80
2019-03-05T18:10:58.028Z,36.80
2019-03-05T18:13:24.159Z,36.80
2019-03-05T18:15:50.247Z,36.80
2019-03-05T18:18:16.490Z,36.80
2019-03-05T18:20:42.488Z,36.80
2019-03-05T18:23:09.429Z,36.70
2019-03-05T18:25:37.001Z,36.80
2019-03-05T18:28:02.984Z,36.70
2019-03-05T18:30:29.069Z,36.80
2019-03-05T18:32:55.425Z,36.60
2019-03-05T18:35:21.495Z,36.70
2019-03-05T18:37:47.486Z,36.60
2019-03-05T18:40:13.522Z,36.70
2019-03-05T18:42:40.102Z,36.60
2019-03-05T18:45:06.066Z,36.60
2019-03-05T18:47:32.449Z,36.70
2019-03-05T18:49:58.636Z,36.60
2019-03-05T18:52:24.698Z,36.60
2019-03-05T18:54:50.652Z,36.60
2019-03-05T18:57:16.697Z,36.60
2019-03-05T18:59:42.774Z,36.60
2019-03-05T19:02:08.900Z,36.60
2019-03-05T19:04:34.966Z,36.50
2019-03-05T19:07:01.021Z,36.50
2019-03-05T19:09:26.999Z,36.50
2019-03-05T19:11:52.971Z,36.40
2019-03-05T19:14:19.057Z,36.50
2019-03-05T19:16:45.022Z,36.50
2019-03-05T19:19:10.979Z,36.50
2019-03-05T19:21:37.011Z,36.40
2019-03-05T19:24:03.100Z,36.40
2019-03-05T19:26:29.185Z,36.40
2019-03-05T19:28:55.254Z,36.40
2019-03-05T19:31:21.309Z,36.40
2019-03-05T19:33:47.695Z,36.40
2019-03-05T19:36:13.761Z,36.40
2019-03-05T19:38:39.848Z,36.40
2019-03-05T19:41:05.911Z,36.40
2019-03-05T19:43:31.973Z,36.60
2019-03-05T19:45:58.043Z,37.20
2019-03-05T19:48:24.415Z,36.60
2019-03-05T19:50:50.523Z,36.60
2019-03-05T19:53:16.464Z,36.50
2019-03-05T19:55:42.529Z,36.40
2019-03-05T19:58:09.632Z,36.50
2019-03-05T20:00:37.606Z,36.50
2019-03-05T20:03:03.964Z,36.50
2019-03-05T20:05:29.998Z,36.30
2019-03-05T20:07:55.978Z,36.40
2019-03-05T20:10:21.931Z,36.30
2019-03-05T20:12:48.605Z,36.30
2019-03-05T20:15:14.675Z,36.20
2019-03-05T20:17:41.034Z,36.10
2019-03-05T20:20:07.006Z,36.10
2019-03-05T20:22:33.616Z,36.30
2019-03-05T20:24:59.691Z,36.90
2019-03-05T20:27:25.626Z,36.20
2019-03-05T20:29:51.678Z,36.20
2019-03-05T20:32:17.743Z,36.10
2019-03-05T20:34:43.728Z,36.10
2019-03-05T20:37:09.776Z,36.00
2019-03-05T20:39:35.755Z,36.00
2019-03-05T20:42:01.828Z,36.10
2019-03-05T20:44:27.907Z,36.00
2019-03-05T20:46:55.936Z,36.70
2019-03-05T20:49:21.826Z,36.70
2019-03-05T20:51:47.874Z,35.90
2019-03-05T20:54:13.927Z,36.10
2019-03-05T20:56:39.878Z,36.00
2019-03-05T20:59:05.837Z,35.90
2019-03-05T21:01:31.926Z,35.90
2019-03-05T21:03:58.141Z,35.90
2019-03-05T21:06:24.227Z,35.90
2019-03-05T21:08:50.339Z,35.90
2019-03-05T21:11:16.322Z,36.00
2019-03-05T21:13:42.285Z,35.90
2019-03-05T21:16:08.228Z,36.00
2019-03-05T21:18:34.251Z,36.10
2019-03-05T21:21:00.589Z,36.10
2019-03-05T21:23:26.638Z,36.30
2019-03-05T21:25:52.585Z,36.30
2019-03-05T21:28:18.522Z,36.40
2019-03-05T21:30:44.524Z,36.40
2019-03-05T21:33:10.597Z,36.40
2019-03-05T21:35:36.902Z,36.40
2019-03-05T21:38:02.884Z,37.00
2019-03-05T21:40:28.943Z,36.40
2019-03-05T21:42:54.891Z,36.40
2019-03-05T21:45:23.099Z,36.40
2019-03-05T21:47:49.138Z,36.40
2019-03-05T21:50:15.375Z,36.40
2019-03-05T21:52:41.426Z,36.40
2019-03-05T21:55:07.474Z,36.40
2019-03-05T21:57:33.522Z,36.40
2019-03-05T21:59:59.523Z,36.40
2019-03-05T22:02:25.834Z,37.10
2019-03-05T22:04:52.238Z,36.50
2019-03-05T22:07:18.330Z,36.40
2019-03-05T22:09:44.446Z,36.40
2019-03-05T22:12:10.544Z,36.40
2019-03-05T22:14:36.575Z,36.50
2019-03-05T22:17:02.553Z,36.40
2019-03-05T22:19:28.621Z,36.40
2019-03-05T22:21:54.690Z,36.40
2019-03-05T22:24:20.623Z,36.40
2019-03-05T22:26:46.605Z,36.40
2019-03-05T22:29:13.044Z,36.40
2019-03-05T22:31:39.547Z,36.40
2019-03-05T22:34:05.695Z,36.50
2019-03-05T22:36:31.767Z,36.50
2019-03-05T22:38:57.755Z,36.50
2019-03-05T22:41:23.779Z,36.50
2019-03-05T22:43:49.825Z,36.50
2019-03-05T22:46:15.844Z,36.50
2019-03-05T22:48:41.919Z,36.50
2019-03-05T22:51:08.096Z,36.50
2019-03-05T22:53:34.564Z,36.50
2019-03-05T22:56:00.618Z,36.50
2019-03-05T22:58:26.566Z,36.60
2019-03-05T23:00:57.235Z,36.50
2019-03-05T23:03:23.401Z,36.90
2019-03-05T23:05:49.736Z,36.60
2019-03-05T23:08:15.748Z,36.70
2019-03-05T23:10:41.798Z,36.70
2019-03-05T23:13:07.867Z,36.70
2019-03-05T23:15:34.032Z,36.70
2019-03-05T23:18:00.071Z,36.70
2019-03-05T23:20:26.405Z,36.80
2019-03-05T23:22:53.378Z,36.80
2019-03-05T23:25:20.063Z,36.80
2019-03-05T23:27:46.000Z,36.80
2019-03-05T23:30:12.286Z,36.80
2019-03-05T23:32:38.239Z,36.80
2019-03-05T23:35:04.208Z,36.80
2019-03-05T23:37:30.462Z,36.80
2019-03-05T23:39:56.531Z,36.90
2019-03-05T23:42:22.496Z,36.80
2019-03-05T23:44:48.443Z,36.80
2019-03-05T23:47:14.397Z,36.80
2019-03-05T23:49:40.462Z,36.80
2019-03-05T23:52:06.645Z,36.90
2019-03-05T23:54:32.669Z,37.60
2019-03-05T23:56:58.657Z,36.90
2019-03-05T23:59:24.606Z,37.00
